Observations for Trim Market St
| Time | AQI | Temp °C | Hum % | Pres Pa | CO μg/m³ | H₂S μg/m³ | NO μg/m³ | NO₂ μg/m³ | O₃ μg/m³ | SO₂ μg/m³ | PM1 μg/m³ | PM2.5 μg/m³ | PM10 μg/m³ |
|---|---|---|---|---|---|---|---|---|---|---|---|---|---|
| Monday 17 August 2026 | |||||||||||||
| 03:25 | 2 | 18.5 | 78 | 2,147,483,647 | 0.04 | 0 | 1.83 | 3.43 | 55.73 | 0 | 0 | 1.24 | 3.49 |
| 03:24 | 2 | 18.5 | 78 | 2,147,483,647 | 0.03 | 0 | 1.84 | 3.1 | 52.57 | 0 | 0 | 0.77 | 2.91 |
| 03:23 | 2 | 18.5 | 78 | 2,147,483,647 | 0.03 | 0 | 1.83 | 3.56 | 52.76 | 0 | 0 | 0.77 | 2.91 |
| 03:22 | 2 | 18.5 | 78 | 2,147,483,647 | 0.05 | 0 | 1.83 | 3.34 | 51.39 | 0 | 0 | 0.77 | 2.91 |
| 03:21 | 2 | 18.5 | 78 | 2,147,483,647 | 0.03 | 0 | 1.75 | 2.84 | 57.17 | 0 | 0 | 0.77 | 3.49 |
| 03:15 | 2 | 18.5 | 78 | 2,147,483,647 | 0.03 | 0 | 1.69 | 3.56 | 59.63 | 0 | 0 | 0.77 | 2.91 |
| 03:12 | 2 | 18.5 | 78 | 2,147,483,647 | 0.03 | 0 | 1.83 | 3.14 | 53.77 | 0 | 0 | 1.24 | 3.49 |
| 03:10 | 2 | 18.5 | 78 | 2,147,483,647 | 0.03 | 0 | 1.79 | 3.64 | 53.55 | 0 | 0 | 1.24 | 4.07 |
| 03:09 | 2 | 18.5 | 78 | 2,147,483,647 | 0.04 | 0 | 1.71 | 3.11 | 52.34 | 0 | 0 | 0.77 | 2.91 |
| 03:06 | 2 | 18.5 | 78 | 2,147,483,647 | 0.03 | 0 | 1.73 | 2.91 | 58.67 | 0 | 0 | 0.77 | 2.91 |
| 03:02 | 2 | 18.5 | 78 | 2,147,483,647 | 0.02 | 0 | 1.86 | 3.27 | 54.49 | 0 | 0 | 1.24 | 3.48 |
| 03:01 | 2 | 18.6 | 78 | 2,147,483,647 | 0.02 | 0 | 1.85 | 3.02 | 56.32 | 0 | 0 | 1.24 | 3.48 |
| 02:59 | 2 | 18.5 | 78 | 2,147,483,647 | 0.02 | 0 | 1.76 | 3.18 | 52.25 | 0 | 0 | 0.77 | 2.91 |
| 02:58 | 2 | 18.5 | 78 | 2,147,483,647 | 0.02 | 0 | 1.71 | 3.39 | 52.22 | 0 | 0 | 1.24 | 3.48 |
| 02:56 | 2 | 18.5 | 78 | 2,147,483,647 | 0.02 | 0 | 1.74 | 3.37 | 58.57 | 0 | 0 | 1.25 | 3.48 |
| 02:55 | 2 | 18.6 | 78 | 2,147,483,647 | 0.01 | 0 | 1.83 | 3.06 | 52.93 | 0 | 0 | 1.25 | 3.48 |
| 02:54 | 2 | 18.5 | 78 | 2,147,483,647 | 0.01 | 0 | 1.82 | 3.42 | 54.54 | 0 | 0 | 1.25 | 3.48 |
| 02:53 | 2 | 18.6 | 78 | 2,147,483,647 | 0.01 | 0 | 1.82 | 3.05 | 52.04 | 0 | 0 | 0.77 | 2.9 |
| 02:52 | 2 | 18.6 | 78 | 2,147,483,647 | 0.02 | 0 | 1.84 | 3.09 | 49.69 | 0 | 0 | 0.77 | 4.06 |
| 02:49 | 2 | 18.6 | 78 | 2,147,483,647 | 0.01 | 0 | 1.85 | 3.14 | 51.66 | 0 | 0 | 1.25 | 3.48 |